createdAt,value
2023-01-13T00:03:35.729Z,32.90
2023-01-13T00:06:02.735Z,24.20
2023-01-13T00:08:29.587Z,32.00
2023-01-13T00:10:56.336Z,35.80
2023-01-13T00:13:26.758Z,34.30
2023-01-13T00:16:00.802Z,29.90
2023-01-13T00:18:28.097Z,30.40
2023-01-13T00:23:35.830Z,31.10
2023-01-13T00:26:04.849Z,34.20
2023-01-13T00:28:31.861Z,38.40
2023-01-13T00:31:08.928Z,38.80
2023-01-13T00:33:36.174Z,37.50
2023-01-13T00:38:30.922Z,32.80
2023-01-13T00:41:02.303Z,29.10
2023-01-13T00:43:29.985Z,29.40
2023-01-13T00:45:56.844Z,34.50
2023-01-13T00:48:23.997Z,37.40
2023-01-13T00:51:03.138Z,30.60
2023-01-13T00:53:32.967Z,34.30
2023-01-13T00:56:06.648Z,26.70
2023-01-13T00:58:34.400Z,29.00
2023-01-13T01:01:02.518Z,36.10
2023-01-13T01:03:29.727Z,31.30
2023-01-13T01:08:24.071Z,41.30
2023-01-13T01:10:50.950Z,33.50
2023-01-13T01:13:17.893Z,30.90
2023-01-13T01:15:44.789Z,35.60
2023-01-13T01:18:11.680Z,30.30
2023-01-13T01:20:38.465Z,31.00
2023-01-13T01:23:05.541Z,34.40
2023-01-13T01:25:33.275Z,34.30
2023-01-13T01:28:00.267Z,27.50
2023-01-13T01:30:27.171Z,31.40
2023-01-13T01:32:54.014Z,29.40
2023-01-13T01:35:21.182Z,36.10
2023-01-13T01:40:14.802Z,32.20
2023-01-13T01:43:00.395Z,30.30
2023-01-13T01:45:27.890Z,32.60
2023-01-13T01:48:00.194Z,34.80
2023-01-13T01:50:27.675Z,44.10
2023-01-13T01:53:01.188Z,42.70
2023-01-13T01:55:30.053Z,42.30
2023-01-13T01:58:03.163Z,38.10
2023-01-13T02:00:31.991Z,40.50
2023-01-13T02:02:58.926Z,41.10
2023-01-13T02:05:25.743Z,40.00
2023-01-13T02:07:53.655Z,38.30
2023-01-13T02:10:22.163Z,37.80
2023-01-13T02:12:49.047Z,39.20
2023-01-13T02:15:21.741Z,42.10
2023-01-13T02:17:59.441Z,41.00
2023-01-13T02:20:45.060Z,43.20
2023-01-13T02:23:52.857Z,45.50
2023-01-13T02:26:52.213Z,47.80
2023-01-13T02:30:02.405Z,43.60
2023-01-13T02:33:07.015Z,43.40
2023-01-13T02:35:55.457Z,33.30
2023-01-13T02:41:31.050Z,42.80
2023-01-13T02:44:08.045Z,30.70
2023-01-13T02:46:36.544Z,32.00
2023-01-13T02:49:05.962Z,36.00
2023-01-13T02:51:32.769Z,38.70
2023-01-13T02:54:05.829Z,29.30
2023-01-13T02:56:35.470Z,29.00
2023-01-13T02:59:02.317Z,28.00
2023-01-13T03:01:29.378Z,44.10
2023-01-13T03:03:56.208Z,32.30
2023-01-13T03:06:45.776Z,33.40
2023-01-13T03:09:29.480Z,27.10
2023-01-13T03:12:01.321Z,23.30
2023-01-13T03:15:00.603Z,27.30
2023-01-13T03:17:37.805Z,33.30
2023-01-13T03:20:07.371Z,28.50
2023-01-13T03:22:41.179Z,33.20
2023-01-13T03:25:17.240Z,38.10
2023-01-13T03:27:49.117Z,35.50
2023-01-13T03:30:49.089Z,37.80
2023-01-13T03:33:17.828Z,51.60
2023-01-13T03:35:50.639Z,49.60
2023-01-13T03:38:18.677Z,39.50
2023-01-13T03:40:57.135Z,49.20
2023-01-13T03:44:04.124Z,54.50
2023-01-13T03:46:45.067Z,54.90
2023-01-13T03:49:13.401Z,42.60
2023-01-13T03:51:40.162Z,47.80
2023-01-13T03:54:09.183Z,38.20
2023-01-13T03:56:41.702Z,47.80
2023-01-13T03:59:11.727Z,46.80
2023-01-13T04:02:01.331Z,43.70
2023-01-13T04:04:45.475Z,39.00
2023-01-13T04:07:24.790Z,48.80
2023-01-13T04:09:54.652Z,47.20
2023-01-13T04:12:48.278Z,50.30
2023-01-13T04:15:19.554Z,48.80
2023-01-13T04:17:46.345Z,49.50
2023-01-13T04:20:13.045Z,56.20
2023-01-13T04:22:39.735Z,44.60
2023-01-13T04:25:07.305Z,45.90
2023-01-13T04:27:34.094Z,49.70
2023-01-13T04:30:00.850Z,44.80
2023-01-13T04:32:27.539Z,48.20
2023-01-13T04:34:54.350Z,43.30
2023-01-13T04:37:21.435Z,52.60
2023-01-13T04:39:48.374Z,46.90
2023-01-13T04:42:15.161Z,53.50
2023-01-13T04:44:41.848Z,56.80
2023-01-13T04:47:08.584Z,52.10
2023-01-13T04:49:35.278Z,46.30
2023-01-13T04:52:03.878Z,52.90
2023-01-13T04:54:30.682Z,53.00
2023-01-13T04:56:57.528Z,48.40
2023-01-13T04:59:24.248Z,46.20
2023-01-13T05:01:51.299Z,49.50
2023-01-13T05:04:18.228Z,45.60
2023-01-13T05:06:45.398Z,41.60
2023-01-13T05:09:13.405Z,46.60
2023-01-13T05:11:59.324Z,54.50
2023-01-13T05:14:45.206Z,39.10
2023-01-13T05:17:22.779Z,54.30
2023-01-13T05:19:49.562Z,42.20
2023-01-13T05:22:35.008Z,50.30
2023-01-13T05:25:20.542Z,35.70
2023-01-13T05:27:54.725Z,41.80
2023-01-13T05:30:22.498Z,35.30
2023-01-13T05:32:49.281Z,37.10
2023-01-13T05:35:16.232Z,38.10
2023-01-13T05:37:43.936Z,42.40
2023-01-13T05:40:30.631Z,42.90
2023-01-13T05:43:26.603Z,43.80
2023-01-13T05:45:53.468Z,45.80
2023-01-13T05:48:21.322Z,42.80
2023-01-13T05:50:49.415Z,39.90
2023-01-13T05:53:17.413Z,45.40
2023-01-13T05:55:44.720Z,42.20
2023-01-13T06:00:40.971Z,44.50
2023-01-13T06:03:08.759Z,49.80
2023-01-13T06:05:35.888Z,39.30
2023-01-13T06:08:03.381Z,45.30
2023-01-13T06:10:30.265Z,39.60
2023-01-13T06:12:57.304Z,42.90
2023-01-13T06:15:24.403Z,40.80
2023-01-13T06:17:51.286Z,42.40
2023-01-13T06:20:18.411Z,45.60
2023-01-13T06:22:49.749Z,44.60
2023-01-13T06:25:43.607Z,42.40
2023-01-13T06:28:10.673Z,41.20
2023-01-13T06:30:48.655Z,45.70
2023-01-13T06:33:17.464Z,46.00
2023-01-13T06:35:50.360Z,39.50
2023-01-13T06:38:17.262Z,40.50
2023-01-13T06:40:44.083Z,44.60
2023-01-13T06:43:17.436Z,39.80
2023-01-13T06:45:54.772Z,40.60
2023-01-13T06:48:27.567Z,45.00
2023-01-13T06:50:54.356Z,42.70
2023-01-13T06:53:21.125Z,43.80
2023-01-13T06:55:48.036Z,43.60
2023-01-13T06:58:14.789Z,44.00
2023-01-13T07:00:41.679Z,42.50
2023-01-13T07:03:15.927Z,43.70
2023-01-13T07:05:43.913Z,39.50
2023-01-13T07:08:10.790Z,47.60
2023-01-13T07:10:38.047Z,43.30
2023-01-13T07:13:25.480Z,42.80
2023-01-13T07:15:57.262Z,42.50
2023-01-13T07:18:24.670Z,40.20
2023-01-13T07:20:55.648Z,42.10
2023-01-13T07:23:22.473Z,39.10
2023-01-13T07:25:49.240Z,37.10
2023-01-13T07:28:16.168Z,36.90
2023-01-13T07:30:42.884Z,41.10
2023-01-13T07:33:09.596Z,34.70
2023-01-13T07:35:36.341Z,42.90
2023-01-13T07:38:03.077Z,45.50
2023-01-13T07:40:30.221Z,41.30
2023-01-13T07:43:15.683Z,42.00
2023-01-13T07:45:42.569Z,40.50
2023-01-13T07:48:09.481Z,45.20
2023-01-13T07:50:36.263Z,53.30
2023-01-13T07:53:03.004Z,47.20
2023-01-13T07:55:29.747Z,39.10
2023-01-13T07:57:56.522Z,43.70
2023-01-13T08:00:23.852Z,42.30
2023-01-13T08:02:50.575Z,56.40
2023-01-13T08:05:18.056Z,45.50
2023-01-13T08:07:45.049Z,53.10
2023-01-13T08:10:12.042Z,51.10
2023-01-13T08:12:57.540Z,49.60
2023-01-13T08:15:24.608Z,53.80
2023-01-13T08:17:51.367Z,49.30
2023-01-13T08:20:18.511Z,53.20
2023-01-13T08:22:45.408Z,47.90
2023-01-13T08:25:12.123Z,48.00
2023-01-13T08:27:39.197Z,51.00
2023-01-13T08:30:06.697Z,59.60
2023-01-13T08:32:33.399Z,48.40
2023-01-13T08:35:00.166Z,53.20
2023-01-13T08:37:26.872Z,55.30
2023-01-13T08:39:53.596Z,47.60
2023-01-13T08:42:20.769Z,46.20
2023-01-13T08:44:47.761Z,46.30
2023-01-13T08:47:14.529Z,51.30
2023-01-13T08:49:41.260Z,55.80
2023-01-13T08:52:08.354Z,50.00
2023-01-13T08:54:35.112Z,54.00
2023-01-13T08:57:03.407Z,51.70
2023-01-13T08:59:30.373Z,68.80
2023-01-13T09:01:57.419Z,64.50
2023-01-13T09:04:25.753Z,60.60
2023-01-13T09:06:52.688Z,63.90
2023-01-13T09:09:19.965Z,68.30
2023-01-13T09:12:08.064Z,76.00
2023-01-13T09:14:35.990Z,66.40
2023-01-13T09:17:03.146Z,64.90
2023-01-13T09:19:30.173Z,66.80
2023-01-13T09:21:57.125Z,55.20
2023-01-13T09:24:24.121Z,50.20
2023-01-13T09:26:50.833Z,47.60
2023-01-13T09:29:17.854Z,48.50
2023-01-13T09:31:44.761Z,45.20
2023-01-13T09:34:34.019Z,45.30
2023-01-13T09:37:00.884Z,44.60
2023-01-13T09:39:27.848Z,46.20
2023-01-13T09:42:15.315Z,43.00
2023-01-13T09:44:55.945Z,37.60
2023-01-13T09:47:24.235Z,35.40
2023-01-13T09:49:51.330Z,40.90
2023-01-13T09:52:26.709Z,36.80
2023-01-13T09:55:11.665Z,36.10
2023-01-13T09:57:39.945Z,37.70
2023-01-13T10:00:14.245Z,38.80
2023-01-13T10:02:46.619Z,43.60
2023-01-13T10:05:37.611Z,38.10
2023-01-13T10:08:23.681Z,41.70
2023-01-13T10:10:53.785Z,39.70
2023-01-13T10:13:23.684Z,42.80
2023-01-13T10:16:08.540Z,40.20
2023-01-13T10:19:00.842Z,38.20
2023-01-13T10:21:40.445Z,38.70
2023-01-13T10:24:56.797Z,33.10
2023-01-13T10:27:36.960Z,28.50
2023-01-13T10:30:31.494Z,34.10
2023-01-13T10:33:14.085Z,31.90
2023-01-13T10:35:51.445Z,30.90
2023-01-13T10:38:39.196Z,30.10
2023-01-13T10:41:18.206Z,37.20
2023-01-13T10:43:50.957Z,33.20
2023-01-13T10:46:18.592Z,34.40
2023-01-13T10:48:58.041Z,33.60
2023-01-13T10:51:37.488Z,33.20
2023-01-13T10:54:13.537Z,36.10
2023-01-13T10:56:41.793Z,40.10
2023-01-13T10:59:24.852Z,36.20
2023-01-13T11:02:05.751Z,31.70
2023-01-13T11:07:34.563Z,30.00
2023-01-13T11:10:17.025Z,32.60
2023-01-13T11:13:06.954Z,35.20
2023-01-13T11:15:57.294Z,33.40
2023-01-13T11:18:30.956Z,33.00
2023-01-13T11:20:57.882Z,29.40
2023-01-13T11:23:30.583Z,30.00
2023-01-13T11:26:02.115Z,24.20
2023-01-13T11:28:39.805Z,29.20
2023-01-13T11:31:27.233Z,29.60
2023-01-13T11:33:57.093Z,26.40
2023-01-13T11:36:29.190Z,26.30
2023-01-13T11:38:57.215Z,23.50
2023-01-13T11:41:43.551Z,26.60
2023-01-13T11:44:20.720Z,26.90
2023-01-13T11:46:50.881Z,27.10
2023-01-13T11:49:26.463Z,30.00
2023-01-13T11:52:15.979Z,28.40
2023-01-13T11:54:49.129Z,28.90
2023-01-13T11:57:37.287Z,31.20
2023-01-13T12:00:23.082Z,29.00
2023-01-13T12:03:17.409Z,26.30
2023-01-13T12:06:04.349Z,26.90
2023-01-13T12:08:41.183Z,25.00
2023-01-13T12:11:22.664Z,27.70
2023-01-13T12:14:19.195Z,28.90
2023-01-13T12:16:49.058Z,26.40
2023-01-13T12:19:28.031Z,29.40
2023-01-13T12:22:10.204Z,26.80
2023-01-13T12:24:46.093Z,33.50
2023-01-13T12:27:35.637Z,27.50
2023-01-13T12:30:03.654Z,26.40
2023-01-13T12:32:35.522Z,26.80
2023-01-13T12:35:15.500Z,23.60
2023-01-13T12:37:52.475Z,26.90
2023-01-13T12:40:48.120Z,30.60
2023-01-13T12:43:40.846Z,27.30
2023-01-13T12:46:23.159Z,28.70
2023-01-13T12:48:55.425Z,26.30
2023-01-13T12:51:26.162Z,31.00
2023-01-13T12:53:53.260Z,29.40
2023-01-13T12:59:16.601Z,34.80
2023-01-13T13:01:44.278Z,32.20
2023-01-13T13:04:17.535Z,29.70
2023-01-13T13:07:05.640Z,35.40
2023-01-13T13:09:36.616Z,32.70
2023-01-13T13:13:00.422Z,37.10
2023-01-13T13:15:29.138Z,34.40
2023-01-13T13:17:59.172Z,34.40
2023-01-13T13:21:03.942Z,37.20
2023-01-13T13:23:45.847Z,34.80
2023-01-13T13:26:22.157Z,31.40
2023-01-13T13:29:20.436Z,30.00
2023-01-13T13:31:53.327Z,34.20
2023-01-13T13:34:29.189Z,36.00
2023-01-13T13:37:16.247Z,37.80
2023-01-13T13:40:01.840Z,32.40
2023-01-13T13:42:48.323Z,40.40
2023-01-13T13:45:40.260Z,33.40
2023-01-13T13:48:25.816Z,35.90
2023-01-13T13:50:59.095Z,32.60
2023-01-13T13:53:27.379Z,30.50
2023-01-13T13:55:58.174Z,39.80
2023-01-13T13:58:26.423Z,39.40
2023-01-13T14:00:53.276Z,44.50
2023-01-13T14:03:31.223Z,40.90
2023-01-13T14:05:59.593Z,36.10
2023-01-13T14:08:31.188Z,37.50
2023-01-13T14:10:57.887Z,32.60
2023-01-13T14:13:29.274Z,39.40
2023-01-13T14:15:58.431Z,49.20
2023-01-13T14:18:26.011Z,46.60
2023-01-13T14:21:17.356Z,44.00
2023-01-13T14:23:51.230Z,41.60
2023-01-13T14:26:17.940Z,34.80
2023-01-13T14:28:44.969Z,37.20
2023-01-13T14:31:11.818Z,37.40
2023-01-13T14:33:49.378Z,31.60
2023-01-13T14:36:37.697Z,34.10
2023-01-13T14:39:04.408Z,37.60
2023-01-13T14:41:43.583Z,34.40
2023-01-13T14:44:13.389Z,35.50
2023-01-13T14:46:41.232Z,35.20
2023-01-13T14:49:24.752Z,39.10
2023-01-13T14:51:52.100Z,37.20
2023-01-13T14:57:24.503Z,34.50
2023-01-13T15:00:01.629Z,38.90
2023-01-13T15:02:32.323Z,38.70
2023-01-13T15:05:24.286Z,43.80
2023-01-13T15:08:26.691Z,39.80
2023-01-13T15:11:01.376Z,43.80
2023-01-13T15:13:35.643Z,44.60
2023-01-13T15:16:08.373Z,52.30
2023-01-13T15:18:39.935Z,50.10
2023-01-13T15:21:08.424Z,48.30
2023-01-13T15:23:35.818Z,47.20
2023-01-13T15:26:02.976Z,43.60
2023-01-13T15:28:29.836Z,50.40
2023-01-13T15:31:00.759Z,44.60
2023-01-13T15:33:27.737Z,48.00
2023-01-13T15:35:54.800Z,45.20
2023-01-13T15:38:22.773Z,44.50
2023-01-13T15:40:50.237Z,43.20
2023-01-13T15:43:37.319Z,40.10
2023-01-13T15:46:24.940Z,50.50
2023-01-13T15:48:54.755Z,53.10
2023-01-13T15:51:21.886Z,54.90
2023-01-13T15:53:49.209Z,54.40
2023-01-13T15:58:46.875Z,52.30
2023-01-13T16:01:13.812Z,45.80
2023-01-13T16:03:40.625Z,49.60
2023-01-13T16:06:17.220Z,38.70
2023-01-13T16:08:43.980Z,38.10
2023-01-13T16:11:11.346Z,42.40
2023-01-13T16:16:18.627Z,34.40
2023-01-13T16:18:45.374Z,35.60
2023-01-13T16:21:12.560Z,33.90
2023-01-13T16:23:39.325Z,36.00
2023-01-13T16:26:27.720Z,36.20
2023-01-13T16:28:55.843Z,33.50
2023-01-13T16:31:32.012Z,37.80
2023-01-13T16:34:02.749Z,32.70
2023-01-13T16:36:30.989Z,34.20
2023-01-13T16:38:57.995Z,36.90
2023-01-13T16:41:25.235Z,34.60
2023-01-13T16:43:52.250Z,37.10
2023-01-13T16:46:24.092Z,39.60
2023-01-13T16:48:52.972Z,41.00
2023-01-13T16:51:20.738Z,31.00
2023-01-13T16:53:47.650Z,35.00
2023-01-13T16:56:20.873Z,35.00
2023-01-13T16:58:47.975Z,32.60
2023-01-13T17:01:23.548Z,34.60
2023-01-13T17:03:51.636Z,35.90
2023-01-13T17:06:40.062Z,32.10
2023-01-13T17:09:18.569Z,32.60
2023-01-13T17:11:45.412Z,34.10
2023-01-13T17:14:18.240Z,30.10
2023-01-13T17:16:47.398Z,31.20
2023-01-13T17:19:14.416Z,31.40
2023-01-13T17:21:41.507Z,31.80
2023-01-13T17:24:09.740Z,32.50
2023-01-13T17:26:49.088Z,34.60
2023-01-13T17:29:17.737Z,33.00
2023-01-13T17:31:44.707Z,29.60
2023-01-13T17:34:12.053Z,30.20
2023-01-13T17:36:39.218Z,31.80
2023-01-13T17:39:06.982Z,35.60
2023-01-13T17:41:33.899Z,30.40
2023-01-13T17:44:00.895Z,33.20
2023-01-13T17:46:27.787Z,33.10
2023-01-13T17:48:54.580Z,35.20
2023-01-13T17:51:22.937Z,38.20
2023-01-13T17:53:49.674Z,37.30
2023-01-13T17:56:17.204Z,38.20
2023-01-13T17:58:45.551Z,34.00
2023-01-13T18:01:21.937Z,37.40
2023-01-13T18:03:49.135Z,37.80
2023-01-13T18:06:18.206Z,40.70
2023-01-13T18:08:45.714Z,36.60
2023-01-13T18:11:12.995Z,36.80
2023-01-13T18:16:19.508Z,36.90
2023-01-13T18:18:47.771Z,34.60
2023-01-13T18:21:41.638Z,39.00
2023-01-13T18:24:35.239Z,38.20
2023-01-13T18:27:22.927Z,37.90
2023-01-13T18:29:51.718Z,37.50
2023-01-13T18:32:18.526Z,35.00
2023-01-13T18:34:45.589Z,35.50
2023-01-13T18:37:13.201Z,36.00
2023-01-13T18:39:40.154Z,32.80
2023-01-13T18:42:26.764Z,33.60
2023-01-13T18:44:54.341Z,35.20
2023-01-13T18:47:21.118Z,32.10
2023-01-13T18:49:47.831Z,31.30
2023-01-13T18:52:14.617Z,32.60
2023-01-13T18:54:41.489Z,34.70
2023-01-13T18:57:08.837Z,38.60
2023-01-13T19:02:03.074Z,33.90
2023-01-13T19:04:29.851Z,35.60
2023-01-13T19:07:00.956Z,38.40
2023-01-13T19:09:28.865Z,37.30
2023-01-13T19:11:56.299Z,40.60
2023-01-13T19:14:37.519Z,40.60
2023-01-13T19:17:13.020Z,37.70
2023-01-13T19:19:41.352Z,39.50
2023-01-13T19:22:10.019Z,42.20
2023-01-13T19:24:37.185Z,47.80
2023-01-13T19:29:32.640Z,41.40
2023-01-13T19:32:00.825Z,39.10
2023-01-13T19:34:28.001Z,36.70
2023-01-13T19:36:54.850Z,39.10
2023-01-13T19:39:21.887Z,39.20
2023-01-13T19:42:07.499Z,42.10
2023-01-13T19:44:53.096Z,41.10
2023-01-13T19:47:19.961Z,42.90
2023-01-13T19:49:46.843Z,41.10
2023-01-13T19:52:13.786Z,47.50
2023-01-13T19:54:40.676Z,49.90
2023-01-13T19:57:07.747Z,42.50
2023-01-13T19:59:35.650Z,41.60
2023-01-13T20:02:04.635Z,40.70
2023-01-13T20:04:38.327Z,47.20
2023-01-13T20:07:06.012Z,38.90
2023-01-13T20:09:33.550Z,41.40
2023-01-13T20:12:18.383Z,42.70
2023-01-13T20:14:47.531Z,43.20
2023-01-13T20:17:15.349Z,43.80
2023-01-13T20:19:42.629Z,41.90
2023-01-13T20:22:09.528Z,43.80
2023-01-13T20:24:36.317Z,43.50
2023-01-13T20:27:03.877Z,39.30
2023-01-13T20:29:31.848Z,43.70
2023-01-13T20:31:58.908Z,40.20
2023-01-13T20:34:25.880Z,42.90
2023-01-13T20:36:53.142Z,38.90
2023-01-13T20:42:06.728Z,36.10
2023-01-13T20:44:33.907Z,41.80
2023-01-13T20:47:00.723Z,36.30
2023-01-13T20:49:27.817Z,41.20
2023-01-13T20:51:54.886Z,42.30
2023-01-13T20:54:21.829Z,44.30
2023-01-13T20:56:48.874Z,42.60
2023-01-13T20:59:15.863Z,39.00
2023-01-13T21:01:42.881Z,43.80
2023-01-13T21:04:09.984Z,35.30
2023-01-13T21:06:36.970Z,41.40
2023-01-13T21:09:03.809Z,35.70
2023-01-13T21:11:49.197Z,36.70
2023-01-13T21:14:38.609Z,39.50
2023-01-13T21:17:05.745Z,40.40
2023-01-13T21:19:32.626Z,36.20
2023-01-13T21:21:59.558Z,38.50
2023-01-13T21:24:26.952Z,40.00
2023-01-13T21:26:59.013Z,38.90
2023-01-13T21:29:25.739Z,36.50
2023-01-13T21:31:54.466Z,34.10
2023-01-13T21:34:21.249Z,38.60
2023-01-13T21:36:48.031Z,36.90
2023-01-13T21:39:16.125Z,44.00
2023-01-13T21:42:01.728Z,41.00
2023-01-13T21:45:04.101Z,38.20
2023-01-13T21:47:49.242Z,41.10
2023-01-13T21:50:20.946Z,41.30
2023-01-13T21:52:48.448Z,39.50
2023-01-13T21:55:25.065Z,41.30
2023-01-13T21:58:14.854Z,37.80
2023-01-13T22:00:42.774Z,45.60
2023-01-13T22:03:10.659Z,42.80
2023-01-13T22:05:37.585Z,37.40
2023-01-13T22:08:04.583Z,46.20
2023-01-13T22:10:31.729Z,40.60
2023-01-13T22:13:20.589Z,38.00
2023-01-13T22:18:13.999Z,40.00
2023-01-13T22:20:42.127Z,43.80
2023-01-13T22:23:09.334Z,47.20
2023-01-13T22:25:36.023Z,44.20
2023-01-13T22:28:06.117Z,44.80
2023-01-13T22:30:33.413Z,38.30
2023-01-13T22:35:27.174Z,46.00
2023-01-13T22:37:53.894Z,42.60
2023-01-13T22:40:20.584Z,43.80
2023-01-13T22:42:47.274Z,40.70
2023-01-13T22:45:14.148Z,41.60
2023-01-13T22:47:40.940Z,40.90
2023-01-13T22:50:08.643Z,38.20
2023-01-13T22:52:35.427Z,40.70
2023-01-13T22:55:02.160Z,45.10
2023-01-13T22:57:42.579Z,46.70
2023-01-13T23:00:14.996Z,41.90
2023-01-13T23:02:42.002Z,38.30
2023-01-13T23:05:09.172Z,39.80
2023-01-13T23:07:36.308Z,43.00
2023-01-13T23:10:04.293Z,39.90
2023-01-13T23:12:31.034Z,44.00
2023-01-13T23:14:57.758Z,41.10
2023-01-13T23:17:24.475Z,40.70
2023-01-13T23:19:51.262Z,39.40
2023-01-13T23:22:18.019Z,38.00
2023-01-13T23:24:45.658Z,39.80
2023-01-13T23:29:39.176Z,36.30
2023-01-13T23:32:06.079Z,36.50
2023-01-13T23:34:32.942Z,37.10
2023-01-13T23:36:59.631Z,39.90
2023-01-13T23:39:26.471Z,34.90
2023-01-13T23:41:53.439Z,31.60
2023-01-13T23:44:20.169Z,35.30
2023-01-13T23:46:46.950Z,41.10
2023-01-13T23:49:13.668Z,39.80
2023-01-13T23:51:40.684Z,36.90
2023-01-13T23:54:07.392Z,40.50
2023-01-13T23:56:39.212Z,33.00
2023-01-13T23:59:06.565Z,39.50
